Time;durP1;ratioP1;P1;durP2;ratioP2;P2;SDS_P1;SDS_P2;PMS_P1;PMS_P2;Temp;Humidity;BMP_temperature;BMP_pressure;BME280_temperature;BME280_humidity;BME280_pressure;Samples;Min_cycle;Max_cycle;Signal;HPM_P1;HPM_P2
2022/05/07 00:00:22;;;;;;;3.13;2.08;;;10.60;96.90;;;;;;6247555;28;20048;-85
2022/05/07 00:03:23;;;;;;;7.05;2.03;;;10.60;96.90;;;;;;6231427;28;20404;-83
2022/05/07 00:06:25;;;;;;;7.53;2.83;;;10.60;97.10;;;;;;6223449;28;20053;-84
2022/05/07 00:09:28;;;;;;;21.30;2.90;;;10.70;97.00;;;;;;6222555;28;20042;-84
2022/05/07 00:12:30;;;;;;;5.57;3.08;;;10.60;96.80;;;;;;6225313;28;20105;-81
2022/05/07 00:15:33;;;;;;;3.90;2.28;;;10.60;97.00;;;;;;6227121;28;20042;-82
2022/05/07 00:18:33;;;;;;;9.05;3.45;;;10.50;97.00;;;;;;6227148;28;20046;-81
2022/05/07 00:21:35;;;;;;;4.53;2.67;;;10.50;97.20;;;;;;6227248;28;20052;-82
2022/05/07 00:24:38;;;;;;;14.00;2.70;;;10.50;97.30;;;;;;6226842;28;20549;-81
2022/05/07 00:27:40;;;;;;;9.80;2.70;;;10.40;97.30;;;;;;6226642;28;20048;-83
2022/05/07 00:30:42;;;;;;;9.50;2.47;;;10.40;97.20;;;;;;6226752;28;20045;-84
2022/05/07 00:33:43;;;;;;;8.63;3.15;;;10.30;97.10;;;;;;6226632;28;20054;-82
2022/05/07 00:36:45;;;;;;;8.60;2.85;;;10.30;97.20;;;;;;6227097;28;20046;-82
2022/05/07 00:39:48;;;;;;;5.85;2.80;;;10.20;97.20;;;;;;6226885;28;20041;-82
2022/05/07 00:42:50;;;;;;;9.20;2.58;;;10.20;97.40;;;;;;6227839;28;20061;-83
2022/05/07 00:45:54;;;;;;;3.65;2.42;;;10.10;97.60;;;;;;6226376;28;20042;-82
2022/05/07 00:48:57;;;;;;;5.50;2.65;;;10.10;97.40;;;;;;6225655;28;20072;-83
2022/05/07 00:51:59;;;;;;;4.55;2.50;;;10.00;97.50;;;;;;6249660;28;20045;-83
2022/05/07 00:55:02;;;;;;;5.07;2.20;;;10.00;97.50;;;;;;6251359;28;20056;-83
2022/05/07 00:58:04;;;;;;;7.50;2.55;;;10.00;97.50;;;;;;6250600;28;20048;-83
2022/05/07 01:01:06;;;;;;;8.75;2.72;;;9.90;97.50;;;;;;6222693;28;20089;-82
2022/05/07 01:04:08;;;;;;;8.65;2.55;;;9.90;97.50;;;;;;6226053;28;20052;-82
2022/05/07 01:07:09;;;;;;;12.07;2.33;;;9.80;97.40;;;;;;6226751;28;20085;-82
2022/05/07 01:10:13;;;;;;;4.97;2.05;;;9.80;97.30;;;;;;6250881;28;20046;-82
2022/05/07 01:13:15;;;;;;;4.28;2.53;;;9.70;97.50;;;;;;6250657;28;20048;-83
2022/05/07 01:16:17;;;;;;;7.45;3.03;;;9.70;97.50;;;;;;6250729;28;20047;-83
2022/05/07 01:19:18;;;;;;;7.25;2.80;;;9.70;97.50;;;;;;6250137;28;20122;-82
2022/05/07 01:22:22;;;;;;;5.65;2.75;;;9.70;97.40;;;;;;6250684;28;20053;-81
2022/05/07 01:25:24;;;;;;;4.57;2.75;;;9.60;97.40;;;;;;6250063;28;20522;-82
2022/05/07 01:28:26;;;;;;;6.93;2.38;;;9.60;97.50;;;;;;6249749;28;20045;-81
2022/05/07 01:31:28;;;;;;;4.72;2.22;;;9.50;97.50;;;;;;6263475;28;20057;-81
2022/05/07 01:34:29;;;;;;;4.68;2.65;;;9.50;97.40;;;;;;6264403;28;20140;-82
2022/05/07 01:37:32;;;;;;;4.63;2.60;;;9.40;97.50;;;;;;6250796;28;20075;-83
2022/05/07 01:40:34;;;;;;;4.43;2.40;;;9.40;97.50;;;;;;6250163;28;20432;-83
2022/05/07 01:43:36;;;;;;;4.95;2.20;;;9.30;97.40;;;;;;6251132;28;20041;-82
2022/05/07 01:49:57;;;;;;;5.10;3.00;;;9.30;97.40;;;;;;6239253;28;20531;-82
2022/05/07 01:53:00;;;;;;;3.97;2.15;;;9.30;97.50;;;;;;6225868;28;20046;-82
2022/05/07 01:56:02;;;;;;;6.60;2.35;;;9.20;97.40;;;;;;6225639;28;20092;-82
2022/05/07 01:59:04;;;;;;;3.63;2.08;;;9.20;97.40;;;;;;6225870;28;20104;-83
2022/05/07 02:02:06;;;;;;;9.55;2.60;;;9.20;97.30;;;;;;6200831;28;20058;-83
2022/05/07 02:05:08;;;;;;;11.68;4.38;;;9.20;97.30;;;;;;6200893;28;20050;-82
2022/05/07 02:08:11;;;;;;;4.95;2.75;;;9.20;97.40;;;;;;6200472;28;20053;-83
2022/05/07 02:11:13;;;;;;;4.10;1.98;;;9.20;97.40;;;;;;6200616;28;20047;-83
2022/05/07 02:14:15;;;;;;;5.32;2.00;;;9.20;97.60;;;;;;6201316;28;20062;-82
2022/05/07 02:17:17;;;;;;;4.38;1.83;;;9.10;97.50;;;;;;6200589;28;20133;-82
2022/05/07 02:20:18;;;;;;;3.50;2.40;;;9.10;97.50;;;;;;6200108;28;20054;-82
2022/05/07 02:23:22;;;;;;;3.33;2.10;;;9.00;97.60;;;;;;6200336;28;20518;-81
2022/05/07 02:26:23;;;;;;;3.65;2.35;;;9.00;97.60;;;;;;6201168;28;20507;-82
2022/05/07 02:29:25;;;;;;;3.28;1.90;;;9.00;97.70;;;;;;6200310;28;20046;-84
2022/05/07 02:32:27;;;;;;;9.80;2.75;;;9.00;97.60;;;;;;6200222;28;20054;-83
2022/05/07 02:35:29;;;;;;;4.28;2.20;;;9.00;97.50;;;;;;6200204;28;20092;-82
2022/05/07 02:38:32;;;;;;;3.55;1.80;;;8.90;97.40;;;;;;6200348;28;20086;-82
2022/05/07 02:44:53;;;;;;;3.55;2.03;;;8.70;97.60;;;;;;6200296;28;20121;-82
2022/05/07 02:47:55;;;;;;;3.33;2.35;;;8.70;97.80;;;;;;6200412;28;20038;-82
2022/05/07 02:50:57;;;;;;;6.55;2.55;;;8.70;97.60;;;;;;6212239;28;20452;-83
2022/05/07 02:54:00;;;;;;;5.55;2.45;;;8.70;97.60;;;;;;6224324;28;20056;-83
2022/05/07 02:57:02;;;;;;;6.95;3.10;;;8.60;97.60;;;;;;6237384;28;20713;-79
2022/05/07 03:00:05;;;;;;;6.47;3.03;;;8.60;97.80;;;;;;6223308;28;20058;-81
2022/05/07 03:03:07;;;;;;;5.78;2.65;;;8.60;97.70;;;;;;6224136;28;20053;-83
2022/05/07 03:06:09;;;;;;;5.95;2.10;;;8.60;97.60;;;;;;6224038;28;20590;-82
2022/05/07 03:09:12;;;;;;;4.05;2.50;;;8.60;97.70;;;;;;6223210;28;20048;-81
2022/05/07 03:12:14;;;;;;;4.75;2.42;;;8.60;97.70;;;;;;6223438;28;20042;-80
2022/05/07 03:15:16;;;;;;;5.50;2.15;;;8.60;97.70;;;;;;6223404;28;20140;-83
2022/05/07 03:18:18;;;;;;;4.20;2.40;;;8.50;97.70;;;;;;6223232;28;20052;-80
2022/05/07 03:21:19;;;;;;;4.07;2.28;;;8.50;97.70;;;;;;6223012;28;20593;-82
2022/05/07 03:24:23;;;;;;;5.20;2.42;;;8.40;97.80;;;;;;6223335;28;20651;-81
2022/05/07 03:27:24;;;;;;;5.97;2.40;;;8.30;97.80;;;;;;6223515;28;20060;-82
2022/05/07 03:30:26;;;;;;;4.20;2.25;;;8.30;97.70;;;;;;6223057;28;20104;-83
2022/05/07 03:33:28;;;;;;;5.90;2.15;;;8.30;97.80;;;;;;6223216;28;20046;-82
2022/05/07 03:36:30;;;;;;;5.80;2.38;;;8.30;97.90;;;;;;6223189;28;20041;-81
2022/05/07 03:39:33;;;;;;;4.55;2.03;;;8.30;98.00;;;;;;6222889;28;20415;-82
2022/05/07 03:42:34;;;;;;;4.95;2.85;;;8.20;98.00;;;;;;6223825;28;20057;-82
2022/05/07 03:45:36;;;;;;;3.30;2.05;;;8.20;98.00;;;;;;6222971;28;20045;-82
2022/05/07 03:48:38;;;;;;;4.15;2.15;;;8.20;97.90;;;;;;6227106;28;20503;-81
2022/05/07 03:54:57;;;;;;;3.20;2.00;;;8.00;97.70;;;;;;6205010;28;20515;-83
2022/05/07 03:57:59;;;;;;;7.15;2.35;;;8.10;97.80;;;;;;6203289;28;20050;-82
2022/05/07 04:01:01;;;;;;;2.75;2.10;;;8.10;97.80;;;;;;6203166;28;20057;-82
2022/05/07 04:04:03;;;;;;;10.55;2.13;;;8.10;97.90;;;;;;6203553;28;20126;-82
2022/05/07 04:07:05;;;;;;;5.18;2.13;;;8.10;97.80;;;;;;6204181;28;20128;-82
2022/05/07 04:10:09;;;;;;;4.10;2.38;;;8.20;97.70;;;;;;6227512;28;20042;-82
2022/05/07 04:13:11;;;;;;;4.72;2.03;;;8.20;97.50;;;;;;6228221;28;20046;-83
2022/05/07 04:16:13;;;;;;;4.70;2.58;;;8.20;97.60;;;;;;6228088;28;20054;-81
2022/05/07 04:19:15;;;;;;;3.65;2.30;;;8.30;97.70;;;;;;6227415;28;20054;-82
2022/05/07 04:22:17;;;;;;;7.88;2.13;;;8.30;97.70;;;;;;6228061;28;20119;-82
2022/05/07 04:25:20;;;;;;;3.42;1.85;;;8.40;97.60;;;;;;6227531;28;20073;-81
2022/05/07 04:28:22;;;;;;;3.65;2.22;;;8.40;97.50;;;;;;6227397;28;20060;-82
2022/05/07 04:31:24;;;;;;;3.78;2.45;;;8.40;97.50;;;;;;6226927;28;20148;-80
2022/05/07 04:34:28;;;;;;;4.78;2.60;;;8.50;97.60;;;;;;6227358;28;20539;-82
2022/05/07 04:37:30;;;;;;;2.95;1.85;;;8.50;97.50;;;;;;6228699;28;20061;-82
2022/05/07 04:40:33;;;;;;;3.08;2.38;;;8.70;97.40;;;;;;6228327;28;20168;-84
2022/05/07 04:43:35;;;;;;;5.18;2.80;;;8.80;97.40;;;;;;6227488;28;20129;-83
2022/05/07 04:46:36;;;;;;;6.30;2.10;;;8.90;97.20;;;;;;6227940;28;20130;-83
2022/05/07 04:49:38;;;;;;;3.00;2.13;;;9.00;97.00;;;;;;6226613;28;20041;-82
2022/05/07 04:52:40;;;;;;;3.67;2.55;;;9.20;96.90;;;;;;6230457;28;20052;-81
2022/05/07 04:55:43;;;;;;;4.03;1.98;;;9.30;96.80;;;;;;6251865;28;20124;-84
2022/05/07 04:58:45;;;;;;;5.82;2.38;;;9.50;96.70;;;;;;6250598;28;20056;-82
2022/05/07 05:01:47;;;;;;;3.83;2.13;;;9.70;96.60;;;;;;6251473;28;20041;-82
2022/05/07 05:04:49;;;;;;;4.68;2.28;;;10.30;96.40;;;;;;6251819;28;20048;-83
2022/05/07 05:07:51;;;;;;;3.20;1.85;;;11.40;94.90;;;;;;6254512;28;20061;-84
2022/05/07 05:10:54;;;;;;;5.75;1.92;;;13.00;92.80;;;;;;6252412;28;20122;-83
2022/05/07 05:13:56;;;;;;;3.60;1.88;;;14.70;90.60;;;;;;6252369;28;20050;-84
2022/05/07 05:16:57;;;;;;;4.10;1.42;;;15.80;86.90;;;;;;6251630;28;20042;-83
2022/05/07 05:20:00;;;;;;;5.63;1.77;;;16.00;85.30;;;;;;6250713;28;20045;-83
2022/05/07 05:23:02;;;;;;;4.32;1.77;;;15.70;86.60;;;;;;6251160;28;20499;-82
2022/05/07 05:26:05;;;;;;;4.40;1.83;;;15.20;87.60;;;;;;6251392;28;20055;-83
2022/05/07 05:29:07;;;;;;;4.53;2.03;;;15.30;87.90;;;;;;6250699;28;20056;-83
2022/05/07 05:32:09;;;;;;;2.70;1.80;;;15.70;86.60;;;;;;6243499;23;20120;-80
2022/05/07 05:35:10;;;;;;;3.25;1.85;;;16.60;84.60;;;;;;6225218;28;20054;-79
2022/05/07 05:38:12;;;;;;;3.53;1.60;;;17.70;81.10;;;;;;6249691;28;20071;-79
2022/05/07 05:41:15;;;;;;;4.93;1.95;;;18.80;78.00;;;;;;6248475;28;20060;-81
2022/05/07 05:44:17;;;;;;;4.18;2.05;;;19.40;75.70;;;;;;6249102;28;20041;-80
2022/05/07 05:47:19;;;;;;;3.83;1.85;;;19.60;75.00;;;;;;6248366;28;20395;-81
2022/05/07 05:50:20;;;;;;;6.32;1.50;;;19.80;74.30;;;;;;6248833;28;20517;-80
2022/05/07 05:53:22;;;;;;;3.13;1.75;;;20.00;73.30;;;;;;6243009;28;20042;-80
2022/05/07 05:56:25;;;;;;;4.22;1.75;;;20.10;72.20;;;;;;6228443;28;20133;-80
2022/05/07 05:59:27;;;;;;;3.25;1.50;;;20.40;71.20;;;;;;6230471;28;20104;-81
2022/05/07 06:02:29;;;;;;;2.60;1.63;;;20.80;69.60;;;;;;6229996;28;20060;-81
2022/05/07 06:05:31;;;;;;;5.65;1.73;;;21.50;68.00;;;;;;6229962;28;20084;-81
2022/05/07 06:08:32;;;;;;;7.22;1.33;;;22.40;65.60;;;;;;6228681;28;20060;-82
2022/05/07 06:11:36;;;;;;;4.97;1.60;;;23.20;63.00;;;;;;6228964;28;20045;-83
2022/05/07 06:14:37;;;;;;;2.33;1.45;;;24.10;60.30;;;;;;6243444;28;20109;-81
2022/05/07 06:17:39;;;;;;;4.25;1.85;;;25.20;56.00;;;;;;6244894;28;20050;-82
2022/05/07 06:20:41;;;;;;;3.28;1.80;;;26.20;52.50;;;;;;6230895;28;20057;-80
2022/05/07 06:23:43;;;;;;;3.67;1.80;;;27.30;49.60;;;;;;6230096;28;20057;-82
2022/05/07 06:30:07;;;;;;;4.63;2.15;;;28.80;44.70;;;;;;6230728;28;20049;-83
2022/05/07 06:33:08;;;;;;;7.05;2.40;;;29.80;42.70;;;;;;6233334;28;20113;-81
2022/05/07 06:36:10;;;;;;;3.42;2.15;;;30.70;41.10;;;;;;6239187;28;20042;-83
2022/05/07 06:39:12;;;;;;;6.80;3.28;;;31.50;39.30;;;;;;6228982;28;20131;-83
2022/05/07 06:42:15;;;;;;;4.18;2.22;;;32.30;37.80;;;;;;6229527;28;20470;-83
2022/05/07 06:45:17;;;;;;;3.45;2.05;;;33.00;36.80;;;;;;6230330;28;20050;-83
2022/05/07 06:48:19;;;;;;;4.72;1.85;;;33.60;35.70;;;;;;6254541;28;20049;-83
2022/05/07 06:51:21;;;;;;;7.75;2.55;;;34.20;34.80;;;;;;6252666;28;20048;-82
2022/05/07 06:54:22;;;;;;;6.22;2.63;;;34.50;34.40;;;;;;6248980;28;20160;-82
2022/05/07 06:57:25;;;;;;;9.32;2.30;;;34.90;33.80;;;;;;6240502;28;20540;-82
2022/05/07 07:00:27;;;;;;;7.07;2.03;;;35.30;33.50;;;;;;6245948;28;20119;-82
2022/05/07 07:03:29;;;;;;;5.80;1.88;;;35.80;33.00;;;;;;6246565;28;20045;-81
2022/05/07 07:06:31;;;;;;;4.30;1.65;;;36.20;32.30;;;;;;6246475;28;20049;-82
2022/05/07 07:09:33;;;;;;;3.80;2.22;;;36.60;32.50;;;;;;6246116;28;20419;-83
2022/05/07 07:12:40;;;;;;;4.57;2.03;;;37.00;31.30;;;;;;6246198;28;20049;-82
2022/05/07 07:15:42;;;;;;;3.00;2.00;;;37.10;30.90;;;;;;6246629;28;20056;-83
2022/05/07 07:18:44;;;;;;;7.82;2.35;;;37.20;31.00;;;;;;6247061;28;20056;-80
2022/05/07 07:21:49;;;;;;;2.95;1.85;;;37.40;30.70;;;;;;6248217;28;20124;-80
2022/05/07 07:24:51;;;;;;;4.22;2.83;;;37.60;30.40;;;;;;6251159;28;20048;-81
2022/05/07 07:27:54;;;;;;;3.33;2.05;;;37.80;30.40;;;;;;6251071;28;20072;-80
2022/05/07 07:30:55;;;;;;;6.95;2.13;;;38.00;30.00;;;;;;6214809;28;1075528;-81
2022/05/07 07:33:57;;;;;;;7.97;1.88;;;38.20;30.40;;;;;;6252541;28;20075;-81
2022/05/07 07:36:59;;;;;;;4.45;2.53;;;38.30;29.60;;;;;;6215336;28;20050;-81
2022/05/07 07:40:02;;;;;;;4.82;2.00;;;38.20;29.50;;;;;;6238562;28;20052;-81
2022/05/07 07:43:05;;;;;;;6.90;1.92;;;38.30;28.90;;;;;;6248973;28;20056;-81
2022/05/07 07:49:27;;;;;;;4.88;1.88;;;38.60;28.60;;;;;;6251180;28;20064;-82
2022/05/07 07:52:29;;;;;;;4.47;1.30;;;38.60;28.40;;;;;;6252793;28;20061;-83
2022/05/07 07:55:31;;;;;;;5.57;1.70;;;38.70;28.50;;;;;;6247896;28;20048;-82
2022/05/07 07:58:34;;;;;;;2.88;1.50;;;38.80;28.30;;;;;;6259040;28;20054;-83
2022/05/07 08:01:36;;;;;;;1.15;0.95;;;39.00;28.20;;;;;;6257669;28;20065;-82
2022/05/07 08:04:38;;;;;;;2.08;1.08;;;38.80;27.40;;;;;;6258288;28;20633;-82
2022/05/07 08:14:21;;;;;;;2.35;1.10;;;38.30;27.30;;;;;;6258494;28;20049;-82
2022/05/07 08:17:23;;;;;;;4.90;1.33;;;38.50;27.30;;;;;;6254155;28;20179;-81
2022/05/07 08:20:24;;;;;;;5.85;1.13;;;38.00;27.30;;;;;;6257733;28;20103;-82
2022/05/07 08:23:26;;;;;;;4.90;0.95;;;37.90;27.30;;;;;;6254204;28;20055;-81
2022/05/07 08:26:28;;;;;;;3.17;1.23;;;38.30;27.30;;;;;;6255228;28;20054;-81
2022/05/07 08:29:31;;;;;;;4.80;0.80;;;38.50;27.50;;;;;;6253261;28;20541;-85
2022/05/07 08:32:33;;;;;;;2.80;0.70;;;38.40;27.10;;;;;;6252288;28;20073;-83
2022/05/07 08:35:35;;;;;;;1.85;1.05;;;38.40;26.60;;;;;;6254250;28;20119;-84
2022/05/07 08:38:37;;;;;;;6.00;1.00;;;37.80;26.90;;;;;;6250457;28;20129;-82
2022/05/07 08:41:39;;;;;;;2.22;0.88;;;37.00;27.50;;;;;;6252278;28;20044;-81
2022/05/07 08:44:43;;;;;;;14.13;1.23;;;36.90;27.50;;;;;;6253817;28;20049;-83
2022/05/07 08:47:45;;;;;;;5.85;0.85;;;37.00;28.00;;;;;;6255609;28;20513;-82
2022/05/07 08:50:47;;;;;;;2.88;0.88;;;37.60;27.60;;;;;;6255415;28;20056;-80
2022/05/07 08:53:53;;;;;;;2.30;0.95;;;37.30;27.50;;;;;;6254206;28;20041;-81
2022/05/07 08:56:54;;;;;;;4.07;0.88;;;34.90;28.40;;;;;;6243839;28;20071;-81
2022/05/07 08:59:58;;;;;;;9.63;1.20;;;32.70;29.90;;;;;;6252518;28;20049;-83
2022/05/07 09:03:01;;;;;;;3.78;0.90;;;31.20;31.30;;;;;;6264882;28;20408;-82
2022/05/07 09:06:03;;;;;;;3.28;1.17;;;30.30;32.50;;;;;;6257342;28;20045;-82
2022/05/07 09:09:06;;;;;;;2.33;0.88;;;29.20;33.80;;;;;;6248534;28;20289;-80
2022/05/07 09:12:09;;;;;;;4.18;1.00;;;28.10;34.50;;;;;;6231629;28;20050;-81
2022/05/07 09:15:12;;;;;;;2.45;0.98;;;27.60;36.00;;;;;;6232612;28;20406;-82
2022/05/07 09:18:16;;;;;;;3.17;1.23;;;27.30;37.00;;;;;;6233698;28;20056;-81
2022/05/07 09:21:19;;;;;;;6.30;1.10;;;27.30;36.10;;;;;;6232153;28;20046;-81
2022/05/07 09:24:22;;;;;;;2.72;0.90;;;27.20;37.00;;;;;;6232167;28;20053;-81
2022/05/07 09:27:24;;;;;;;2.25;1.00;;;26.70;36.10;;;;;;6231861;28;20135;-81
2022/05/07 09:30:30;;;;;;;7.07;1.02;;;26.20;37.00;;;;;;6231048;28;20092;-82
2022/05/07 09:33:33;;;;;;;2.47;1.13;;;26.10;37.90;;;;;;6231214;28;20050;-82
2022/05/07 09:36:34;;;;;;;8.80;1.42;;;25.90;39.60;;;;;;6230364;28;20046;-80
2022/05/07 09:39:36;;;;;;;1.90;1.00;;;26.00;38.90;;;;;;6246801;28;20038;-82
2022/05/07 09:42:38;;;;;;;4.05;1.23;;;26.20;38.10;;;;;;6248760;28;20050;-80
2022/05/07 09:45:42;;;;;;;2.28;0.68;;;26.20;38.10;;;;;;6249567;28;20041;-82
2022/05/07 09:48:45;;;;;;;1.60;0.80;;;26.40;38.90;;;;;;6256065;28;20052;-82
2022/05/07 09:51:47;;;;;;;4.47;0.82;;;26.40;38.40;;;;;;6256556;28;20124;-82
2022/05/07 09:58:09;;;;;;;2.40;0.65;;;27.30;36.80;;;;;;6246354;28;20053;-82
2022/05/07 10:01:36;;;;;;;11.48;1.67;;;28.40;35.30;;;;;;6255329;28;20172;-83
2022/05/07 10:04:48;;;;;;;6.93;0.70;;;29.00;34.30;;;;;;6232059;28;20104;-82
2022/05/07 10:08:13;;;;;;;3.45;0.65;;;28.50;33.90;;;;;;6254484;28;20045;-82
2022/05/07 10:11:16;;;;;;;3.83;0.75;;;27.70;34.30;;;;;;6248662;28;20055;-82
2022/05/07 10:14:26;;;;;;;11.13;0.98;;;27.10;35.00;;;;;;6254079;28;20114;-81
2022/05/07 10:17:29;;;;;;;3.85;0.60;;;27.00;34.70;;;;;;6251859;28;20045;-84
2022/05/07 10:20:43;;;;;;;1.70;0.77;;;26.80;32.80;;;;;;6249986;28;20047;-84
2022/05/07 10:23:53;;;;;;;1.23;0.57;;;26.70;35.10;;;;;;6251435;28;20042;-82
2022/05/07 10:26:56;;;;;;;1.58;0.60;;;26.80;34.30;;;;;;6250792;28;20053;-80
2022/05/07 10:30:05;;;;;;;2.55;1.88;;;26.70;34.30;;;;;;6253261;28;20525;-82
2022/05/07 10:33:08;;;;;;;0.80;0.50;;;26.80;34.80;;;;;;6252404;28;20507;-81
2022/05/07 10:36:11;;;;;;;2.03;0.80;;;26.80;35.10;;;;;;6250328;28;20492;-84
2022/05/07 10:39:14;;;;;;;5.65;2.10;;;26.90;33.90;;;;;;6241174;28;20058;-85
2022/05/07 10:42:17;;;;;;;0.52;0.47;;;27.10;34.50;;;;;;6249786;28;20045;-83
2022/05/07 10:45:22;;;;;;;4.15;0.77;;;27.20;35.10;;;;;;6252812;28;20049;-82
2022/05/07 10:48:25;;;;;;;2.30;1.00;;;26.80;34.00;;;;;;6251354;28;20101;-82
2022/05/07 10:51:29;;;;;;;0.88;0.63;;;26.40;34.70;;;;;;6251162;28;20088;-83
2022/05/07 10:54:31;;;;;;;1.83;0.95;;;26.30;35.00;;;;;;6251409;28;20057;-83
2022/05/07 10:57:44;;;;;;;3.47;0.75;;;26.50;34.80;;;;;;6250080;28;20037;-83
2022/05/07 11:07:30;;;;;;;1.45;0.50;;;27.20;34.00;;;;;;6228683;28;20041;-83
2022/05/07 11:10:32;;;;;;;2.70;0.68;;;27.50;32.10;;;;;;6243121;28;20045;-82
2022/05/07 11:13:47;;;;;;;2.50;0.57;;;27.00;30.00;;;;;;6251257;28;20072;-83
2022/05/07 11:16:48;;;;;;;1.42;0.75;;;26.60;31.80;;;;;;6248415;28;20049;-81
2022/05/07 11:19:52;;;;;;;3.42;0.70;;;26.50;32.40;;;;;;6248792;28;20172;-83
2022/05/07 11:22:58;;;;;;;4.90;0.55;;;26.60;31.20;;;;;;6250147;28;20586;-82
2022/05/07 11:26:11;;;;;;;0.50;0.30;;;26.80;30.90;;;;;;6250212;28;20534;-82
2022/05/07 11:32:38;;;;;;;3.53;0.70;;;27.30;31.90;;;;;;6244010;22;20111;-82
2022/05/07 11:35:41;;;;;;;1.33;0.50;;;27.50;31.50;;;;;;6224210;28;20049;-83
2022/05/07 11:38:42;;;;;;;1.20;0.40;;;27.60;30.60;;;;;;6223486;28;20057;-83
2022/05/07 11:41:53;;;;;;;1.83;0.60;;;27.60;30.60;;;;;;6224408;28;20049;-83
2022/05/07 11:48:18;;;;;;;1.40;0.50;;;27.60;31.30;;;;;;6198921;28;20635;-83
2022/05/07 11:51:27;;;;;;;2.38;0.85;;;27.30;31.70;;;;;;6198967;28;20500;-83
2022/05/07 11:54:29;;;;;;;4.70;0.98;;;26.90;31.60;;;;;;6200224;28;20056;-84
2022/05/07 11:57:33;;;;;;;1.60;0.60;;;26.90;33.00;;;;;;6200486;28;20077;-83
2022/05/07 12:00:41;;;;;;;3.88;1.10;;;27.60;32.60;;;;;;6221609;28;20045;-83
2022/05/07 12:03:43;;;;;;;6.88;1.00;;;27.70;31.50;;;;;;6246857;28;20571;-83
2022/05/07 12:06:56;;;;;;;3.03;0.93;;;27.70;32.70;;;;;;6250249;28;20084;-84
2022/05/07 12:09:58;;;;;;;4.13;0.50;;;28.40;32.90;;;;;;6228398;28;20046;-83
2022/05/07 12:13:00;;;;;;;4.18;0.40;;;29.10;31.30;;;;;;6228428;28;20046;-83
2022/05/07 12:19:21;;;;;;;3.28;0.50;;;29.80;30.80;;;;;;6228081;28;20049;-84
2022/05/07 12:32:23;;;;;;;3.33;0.68;;;29.00;31.60;;;;;;6227793;28;20038;-84
2022/05/07 12:35:25;;;;;;;2.38;0.57;;;29.00;31.90;;;;;;6227236;28;20054;-84
2022/05/07 12:38:28;;;;;;;3.60;0.73;;;29.20;30.90;;;;;;6229793;28;20050;-81
2022/05/07 12:41:30;;;;;;;5.93;0.80;;;28.90;31.80;;;;;;6227442;28;20108;-81
2022/05/07 12:44:32;;;;;;;2.45;0.77;;;29.10;31.90;;;;;;6226394;28;20042;-80
2022/05/07 12:47:34;;;;;;;1.60;0.40;;;29.10;31.80;;;;;;6226396;28;20081;-82
2022/05/07 12:50:36;;;;;;;2.20;0.47;;;28.70;31.40;;;;;;6226365;28;20149;-82
2022/05/07 12:53:39;;;;;;;4.20;1.35;;;28.40;32.80;;;;;;6225510;28;20046;-82
2022/05/07 12:56:41;;;;;;;1.35;0.90;;;28.80;33.10;;;;;;6225653;28;20156;-82
2022/05/07 12:59:43;;;;;;;2.50;0.95;;;29.20;32.10;;;;;;6223863;28;20053;-81
2022/05/07 13:02:45;;;;;;;3.53;0.60;;;29.10;31.60;;;;;;6218732;28;20053;-83
2022/05/07 13:05:46;;;;;;;1.48;0.30;;;29.20;31.20;;;;;;6225075;28;20045;-85
2022/05/07 13:08:50;;;;;;;1.30;0.50;;;28.70;31.30;;;;;;6225375;28;20073;-84
2022/05/07 13:11:51;;;;;;;3.13;0.43;;;28.50;32.40;;;;;;6225624;28;20038;-84
2022/05/07 13:14:55;;;;;;;4.13;1.83;;;28.20;32.40;;;;;;6227669;28;20424;-85
2022/05/07 13:17:57;;;;;;;3.20;0.55;;;28.40;32.10;;;;;;6226740;28;20411;-83
2022/05/07 13:20:59;;;;;;;3.05;0.57;;;28.70;32.30;;;;;;6227225;28;20058;-85
2022/05/07 13:24:02;;;;;;;1.83;0.73;;;29.00;31.20;;;;;;6224842;28;20089;-86
2022/05/07 13:27:04;;;;;;;1.30;0.77;;;28.50;32.10;;;;;;6224784;28;20131;-85
2022/05/07 13:30:08;;;;;;;1.40;0.57;;;28.20;32.40;;;;;;6224707;28;20042;-85
2022/05/07 13:33:10;;;;;;;2.38;0.60;;;27.70;33.00;;;;;;6227229;28;20057;-84
2022/05/07 13:36:13;;;;;;;2.13;0.70;;;27.40;32.80;;;;;;6225418;28;20503;-84
2022/05/07 13:39:16;;;;;;;4.32;0.80;;;27.20;34.90;;;;;;6226253;28;20458;-82
2022/05/07 13:42:18;;;;;;;4.45;0.85;;;27.50;34.10;;;;;;6230553;28;20049;-84
2022/05/07 13:45:20;;;;;;;3.22;0.82;;;28.10;34.40;;;;;;6231729;28;20121;-84
2022/05/07 13:48:22;;;;;;;1.55;0.52;;;28.60;34.40;;;;;;6225846;28;20573;-84
2022/05/07 13:51:23;;;;;;;1.25;0.52;;;29.10;33.60;;;;;;6225553;28;20054;-84
2022/05/07 13:54:26;;;;;;;2.05;1.00;;;29.20;32.40;;;;;;6225814;28;20058;-83
2022/05/07 13:57:28;;;;;;;3.90;0.82;;;28.80;31.50;;;;;;6226134;28;20404;-84
2022/05/07 14:00:32;;;;;;;2.17;0.82;;;28.00;32.10;;;;;;6224080;28;20050;-84
2022/05/07 14:03:33;;;;;;;1.33;0.40;;;27.60;32.80;;;;;;6223254;28;20048;-84
2022/05/07 14:06:36;;;;;;;2.50;1.02;;;27.70;33.30;;;;;;6225528;28;20054;-84
2022/05/07 14:09:39;;;;;;;2.67;0.60;;;28.00;33.10;;;;;;6222837;28;20136;-84
2022/05/07 14:12:41;;;;;;;2.15;0.60;;;27.70;32.60;;;;;;6225362;28;20571;-85
2022/05/07 14:15:43;;;;;;;3.70;0.60;;;27.80;33.40;;;;;;6226091;28;20511;-84
2022/05/07 14:18:45;;;;;;;1.73;0.50;;;28.10;33.50;;;;;;6226021;28;20049;-84
2022/05/07 14:21:46;;;;;;;1.15;0.73;;;28.50;33.30;;;;;;6224868;28;20119;-84
2022/05/07 14:24:50;;;;;;;2.05;0.82;;;28.70;32.20;;;;;;6224762;28;20046;-84
2022/05/07 14:27:52;;;;;;;1.90;0.88;;;28.50;33.30;;;;;;6221556;28;20572;-85
2022/05/07 14:30:54;;;;;;;5.78;1.08;;;28.30;31.40;;;;;;6225456;28;20042;-84
2022/05/07 14:33:56;;;;;;;3.25;0.60;;;27.80;31.80;;;;;;6224928;28;20042;-84
2022/05/07 14:36:58;;;;;;;4.55;0.68;;;27.70;32.70;;;;;;6223462;28;20046;-85
2022/05/07 14:40:28;;;;;;;4.15;0.60;;;27.70;33.40;;;;;;6223912;28;20049;-84
2022/05/07 14:43:23;;;;;;;2.65;0.73;;;27.90;32.90;;;;;;6223452;28;20056;-84
2022/05/07 14:46:25;;;;;;;4.85;0.70;;;27.80;32.80;;;;;;6225742;28;20053;-84
2022/05/07 14:49:27;;;;;;;6.88;1.00;;;27.50;33.40;;;;;;6225471;28;20080;-82
2022/05/07 14:52:29;;;;;;;2.92;0.52;;;27.50;33.40;;;;;;6224942;28;20089;-82
2022/05/07 14:55:32;;;;;;;1.75;0.63;;;27.90;33.20;;;;;;6225780;28;20044;-84
2022/05/07 14:58:34;;;;;;;2.25;0.75;;;28.30;32.90;;;;;;6225435;28;20487;-83
2022/05/07 15:01:37;;;;;;;2.90;0.82;;;28.10;32.40;;;;;;6225329;28;20393;-82
2022/05/07 15:04:39;;;;;;;4.55;0.77;;;27.90;33.10;;;;;;6216587;28;20058;-82
2022/05/07 15:07:41;;;;;;;1.85;0.50;;;27.90;32.80;;;;;;6222770;28;20041;-85
2022/05/07 15:10:45;;;;;;;1.50;0.43;;;27.60;32.80;;;;;;6223479;28;20053;-85
2022/05/07 15:13:48;;;;;;;1.70;0.30;;;27.10;33.10;;;;;;6225210;28;20051;-84
2022/05/07 15:16:50;;;;;;;2.50;1.05;;;26.80;33.80;;;;;;6228311;28;20050;-84
2022/05/07 15:19:52;;;;;;;1.30;0.52;;;26.40;33.90;;;;;;6222757;28;20563;-83
2022/05/07 15:22:54;;;;;;;5.18;0.60;;;26.10;34.40;;;;;;6225791;28;20053;-83
2022/05/07 15:25:57;;;;;;;2.72;0.60;;;25.80;34.90;;;;;;6223371;28;20049;-84
2022/05/07 15:28:59;;;;;;;1.73;0.75;;;25.70;35.40;;;;;;6222861;28;20045;-83
2022/05/07 15:38:42;;;;;;;0.98;0.40;;;25.20;36.10;;;;;;6187377;28;20121;-84
2022/05/07 15:41:45;;;;;;;2.15;0.60;;;25.50;35.60;;;;;;6221709;28;20097;-84
2022/05/07 15:44:47;;;;;;;3.33;0.80;;;25.80;35.20;;;;;;6227527;28;20042;-85
2022/05/07 15:47:48;;;;;;;2.72;0.70;;;26.10;35.60;;;;;;6227971;28;20053;-85
2022/05/07 15:50:55;;;;;;;1.83;0.70;;;26.30;35.00;;;;;;6228927;28;20137;-85
2022/05/07 15:53:57;;;;;;;9.25;1.10;;;26.50;34.70;;;;;;6228544;28;20389;-83
2022/05/07 15:57:05;;;;;;;1.73;0.50;;;26.10;34.00;;;;;;6223410;28;20400;-85
2022/05/07 16:00:08;;;;;;;3.33;0.90;;;25.60;34.90;;;;;;6233892;28;20107;-85
2022/05/07 16:03:10;;;;;;;2.10;0.32;;;25.20;35.80;;;;;;6237685;28;20051;-84
2022/05/07 16:06:12;;;;;;;2.72;0.52;;;24.90;35.80;;;;;;6219912;28;20068;-82
2022/05/07 16:09:14;;;;;;;1.85;0.50;;;24.70;36.20;;;;;;6226716;28;20097;-84
2022/05/07 16:12:18;;;;;;;1.90;0.50;;;24.50;36.70;;;;;;6226712;28;20057;-86
2022/05/07 16:15:19;;;;;;;1.75;1.00;;;24.50;37.40;;;;;;6226941;28;20068;-84
2022/05/07 16:18:21;;;;;;;2.08;0.60;;;24.30;36.80;;;;;;6227469;28;20419;-85
2022/05/07 16:21:23;;;;;;;1.35;0.65;;;24.20;37.40;;;;;;6226611;28;20049;-84
2022/05/07 16:27:45;;;;;;;1.20;0.65;;;24.20;37.70;;;;;;6226667;28;20058;-86
2022/05/07 16:30:49;;;;;;;2.17;0.82;;;24.20;38.00;;;;;;6226426;28;20050;-84
2022/05/07 16:33:51;;;;;;;2.55;0.80;;;24.20;38.50;;;;;;6225849;28;20042;-86
2022/05/07 16:36:53;;;;;;;1.00;0.70;;;24.10;38.60;;;;;;6227079;28;20053;-87
2022/05/07 16:39:56;;;;;;;1.73;0.57;;;24.10;38.70;;;;;;6226410;28;20085;-84
2022/05/07 16:42:59;;;;;;;2.88;1.20;;;24.10;38.80;;;;;;6228413;28;20049;-85
2022/05/07 16:46:02;;;;;;;2.00;0.40;;;24.10;38.60;;;;;;6226178;28;20077;-84
2022/05/07 16:49:04;;;;;;;1.65;0.60;;;23.90;37.80;;;;;;6225999;28;20530;-85
2022/05/07 16:52:06;;;;;;;2.00;0.77;;;23.70;38.30;;;;;;6229016;28;20038;-82
2022/05/07 16:55:10;;;;;;;0.50;0.28;;;23.60;38.80;;;;;;6229172;28;20089;-83